createdAt,value
2024-05-09T03:05:05.026Z,25.4
2024-05-09T03:15:04.139Z,25.4
2024-05-09T03:25:03.359Z,25.4
2024-05-09T03:35:02.564Z,25.4
2024-05-09T03:45:01.772Z,25.4
2024-05-09T03:55:00.973Z,25.4
2024-05-09T04:05:00.406Z,25.4
2024-05-09T04:14:59.478Z,25.4
2024-05-09T04:24:58.762Z,25.4
2024-05-09T04:34:59.482Z,25.4
2024-05-09T04:44:58.889Z,25.4
2024-05-09T04:54:58.928Z,25.4
2024-05-09T05:04:57.144Z,25.4
2024-05-09T05:14:56.280Z,25.4
2024-05-09T05:24:55.491Z,25.4
2024-05-09T05:34:54.717Z,25.4
2024-05-09T05:44:53.935Z,25.4
2024-05-09T05:54:53.104Z,25.4
2024-05-09T06:04:52.448Z,25.4
2024-05-09T06:14:51.515Z,25.4
2024-05-09T06:24:50.739Z,25.4
2024-05-09T06:34:49.988Z,25.4
2024-05-09T06:44:49.160Z,25.4
2024-05-09T06:54:48.343Z,25.4
2024-05-09T07:04:47.734Z,25.4
2024-05-09T07:14:46.803Z,25.4
2024-05-09T07:24:45.982Z,25.4
2024-05-09T07:34:45.233Z,25.4
2024-05-09T07:44:44.422Z,25.4
2024-05-09T07:58:17.363Z,25.4
2024-05-09T08:08:16.703Z,25.4
2024-05-09T08:18:16.006Z,25.4
2024-05-09T08:28:15.107Z,25.4
2024-05-09T08:38:14.248Z,25.4
2024-05-09T08:48:13.843Z,25.4
2024-05-09T08:58:12.730Z,25.4
2024-05-09T09:05:05.137Z,25.4
2024-05-09T09:15:04.295Z,25.4
2024-05-09T09:25:03.591Z,25.4
2024-05-09T09:35:02.749Z,25.4
2024-05-09T09:45:04.649Z,25.4
2024-05-09T09:55:01.148Z,25.4
2024-05-09T10:05:00.391Z,25.4
2024-05-09T10:14:59.614Z,25.5
2024-05-09T10:24:59.182Z,25.5
2024-05-09T10:34:58.227Z,25.5
2024-05-09T10:44:57.443Z,25.5
2024-05-09T10:54:56.758Z,25.6
2024-05-09T11:04:56.043Z,25.6
2024-05-09T11:14:55.124Z,25.6
2024-05-09T11:24:54.415Z,25.6
2024-05-09T11:34:53.533Z,25.6
2024-05-09T11:44:52.763Z,25.7
2024-05-09T11:54:51.962Z,25.7
2024-05-09T12:04:51.265Z,25.7
2024-05-09T12:14:50.360Z,25.6
2024-05-09T12:24:49.603Z,25.6
2024-05-09T12:34:48.815Z,25.6
2024-05-09T12:44:48.017Z,25.6
2024-05-09T12:54:47.227Z,25.6
2024-05-09T13:04:46.461Z,25.6
2024-05-09T13:14:45.617Z,25.6
2024-05-09T13:24:44.851Z,25.6
2024-05-09T13:34:44.085Z,25.5
2024-05-09T13:44:43.245Z,25.4
2024-05-09T13:54:42.468Z,25.4
2024-05-09T14:04:41.798Z,25.4
2024-05-09T14:14:40.853Z,25.4
2024-05-09T14:24:40.121Z,25.4
2024-05-09T14:34:39.328Z,25.3
2024-05-09T14:44:38.489Z,25.3
2024-05-09T14:54:37.715Z,25.3
2024-05-09T15:05:06.366Z,25.3
2024-05-09T15:15:05.470Z,25.3
2024-05-09T15:25:04.704Z,25.2
2024-05-09T15:35:03.867Z,25.2
2024-05-09T15:45:03.087Z,25.2
2024-05-09T15:55:02.294Z,25.2
2024-05-09T16:05:01.593Z,25.1
2024-05-09T16:15:00.770Z,25.1
2024-05-09T16:25:00.132Z,25.1
2024-05-09T16:34:59.353Z,25.1
2024-05-09T16:44:58.615Z,25.1
2024-05-09T16:54:57.918Z,25.1
2024-05-09T17:04:57.162Z,25.1
2024-05-09T17:14:56.290Z,25.1
2024-05-09T17:24:55.540Z,25.1
2024-05-09T17:34:54.719Z,25.1
2024-05-09T17:44:53.919Z,25.1
2024-05-09T17:54:53.212Z,25.1
2024-05-09T18:04:52.379Z,25.1
2024-05-09T18:14:51.527Z,25
2024-05-09T18:24:50.779Z,25
2024-05-09T18:34:50.006Z,25
2024-05-09T18:44:49.171Z,25
2024-05-09T18:54:48.398Z,24.9
2024-05-09T19:04:47.714Z,24.9
2024-05-09T19:14:46.772Z,24.9
2024-05-09T19:24:45.997Z,24.9
2024-05-09T19:34:45.183Z,24.9
2024-05-09T19:44:44.401Z,24.9
2024-05-09T19:54:43.599Z,24.9
2024-05-09T20:04:42.863Z,24.9
2024-05-09T20:14:42.005Z,24.9
2024-05-09T20:24:41.239Z,24.9
2024-05-09T20:34:40.421Z,24.9
2024-05-09T20:44:39.660Z,24.9
2024-05-09T20:54:38.854Z,24.9
2024-05-09T21:05:04.497Z,24.9
2024-05-09T21:15:03.633Z,24.8
2024-05-09T21:25:02.930Z,24.8
2024-05-09T21:35:02.029Z,24.8
2024-05-09T21:45:01.249Z,24.8
2024-05-09T21:55:00.481Z,24.8
2024-05-09T22:04:59.803Z,24.8
2024-05-09T22:14:58.952Z,24.8
2024-05-09T22:24:58.250Z,24.8
2024-05-09T22:34:57.502Z,24.8
2024-05-09T22:44:56.768Z,24.8
2024-05-09T22:54:56.134Z,24.8
2024-05-09T23:04:55.424Z,24.8
2024-05-09T23:14:54.445Z,24.8
2024-05-09T23:24:53.716Z,24.7
2024-05-09T23:34:52.894Z,24.7
2024-05-09T23:44:52.082Z,24.6
2024-05-09T23:54:51.297Z,24.6
